KHUA/HUA METAR and TAF weather

Enter ICAO airport designator
Station Type Date Time Source
KHUA METAR 2020/08/07 10:58 UTC NOAA

KHUA 071058Z AUTO 04005KT 10SM CLR 21/19 A3005 RMK AO2 SLP170 T02140194


Station Type Date Time Source
KHUA Decoded METAR 2020/08/07 10:58 UTC NOAA

Station name not available
Aug 07, 2020 - 06:58 AM EDT / 2020.08.07 1058 UTC
Wind: from the NE (040 degrees) at 6 MPH (5 KT):0
Visibility: 10 mile(s):0
Sky conditions: clear
Temperature: 70.5 F (21.4 C)
Dew Point: 66.9 F (19.4 C)
Relative Humidity: 88%
Pressure (altimeter): 30.05 in. Hg (1017 hPa)
ob: KHUA 071058Z AUTO 04005KT 10SM CLR 21/19 A3005 RMK AO2 SLP170 T02140194
cycle: 11

Station Type Date Time Source
KHUA TAF UTC NOAA

Error!

Example: see airport list